Time;durP1;ratioP1;P1;durP2;ratioP2;P2;SDS_P1;SDS_P2;PMS_P1;PMS_P2;Temp;Humidity;BMP_temperature;BMP_pressure;BME280_temperature;BME280_humidity;BME280_pressure;Samples;Min_cycle;Max_cycle;Signal;HPM_P1;HPM_P2
2022/03/28 00:01:58;;;;;;;10.70;6.73;;;10.20;53.70;10.30;97304.00;;;;4971588;28;20212;-84
2022/03/28 00:04:25;;;;;;;13.80;7.10;;;10.10;54.00;10.20;97305.00;;;;4969558;29;20269;-84
2022/03/28 00:06:53;;;;;;;10.13;6.67;;;10.10;54.20;10.20;97300.00;;;;4968554;28;20788;-85
2022/03/28 00:09:20;;;;;;;9.47;6.27;;;10.10;54.50;10.10;97304.00;;;;4965478;29;20218;-84
2022/03/28 00:11:47;;;;;;;9.37;7.07;;;10.10;54.50;10.10;97298.00;;;;4966631;28;20700;-83
2022/03/28 00:14:14;;;;;;;12.67;6.93;;;10.00;54.40;10.10;97295.00;;;;4967112;29;20263;-84
2022/03/28 00:16:41;;;;;;;6.93;6.20;;;10.00;54.40;10.00;97296.00;;;;4966072;29;20250;-84
2022/03/28 00:19:08;;;;;;;9.63;6.07;;;10.00;54.30;10.00;97298.00;;;;4968963;28;20261;-84
2022/03/28 00:21:35;;;;;;;7.43;6.07;;;9.90;54.30;10.00;97288.00;;;;4955820;28;20219;-84
2022/03/28 00:24:05;;;;;;;6.57;5.37;;;9.90;55.00;10.00;97295.00;;;;4954110;28;20214;-84
2022/03/28 00:26:32;;;;;;;10.37;6.07;;;9.90;54.50;10.00;97284.00;;;;5023120;28;20200;-84
2022/03/28 00:28:59;;;;;;;7.43;6.63;;;9.90;54.50;10.00;97290.00;;;;4957208;28;20561;-84
2022/03/28 00:31:26;;;;;;;8.43;6.07;;;9.90;54.50;9.90;97291.00;;;;4953298;28;20203;-85
2022/03/28 00:33:53;;;;;;;8.23;6.43;;;9.90;54.50;9.90;97277.00;;;;4952918;29;20204;-84
2022/03/28 00:36:20;;;;;;;10.20;6.33;;;9.80;54.50;9.90;97279.00;;;;4953517;29;20224;-84
2022/03/28 00:38:48;;;;;;;6.77;5.77;;;9.80;54.50;9.90;97278.00;;;;4952689;29;20580;-84
2022/03/28 00:41:17;;;;;;;8.70;6.80;;;9.80;54.60;9.80;97270.00;;;;4953754;28;20291;-84
2022/03/28 00:43:52;;;;;;;6.83;5.40;;;9.80;54.90;9.80;97276.00;;;;4954214;29;20214;-84
2022/03/28 00:46:19;;;;;;;9.03;6.37;;;9.70;54.90;9.80;97274.00;;;;4961436;28;20211;-84
2022/03/28 00:48:46;;;;;;;8.87;5.90;;;9.70;54.80;9.80;97275.00;;;;4962781;28;20390;-85
2022/03/28 00:51:14;;;;;;;10.83;6.93;;;9.60;54.90;9.80;97278.00;;;;4963414;28;20200;-84
2022/03/28 00:53:41;;;;;;;9.80;6.10;;;9.60;55.00;9.80;97264.00;;;;4953363;28;20216;-84
2022/03/28 00:56:09;;;;;;;8.60;5.80;;;9.60;55.30;9.80;97262.00;;;;4953741;28;20235;-84
2022/03/28 00:58:37;;;;;;;8.37;6.20;;;9.60;55.40;9.70;97266.00;;;;4988013;28;20207;-84
2022/03/28 01:01:04;;;;;;;7.93;5.90;;;9.60;55.70;9.70;97247.00;;;;4953439;28;20201;-84
2022/03/28 01:03:31;;;;;;;8.20;6.17;;;9.60;55.80;9.70;97249.00;;;;4957082;28;20715;-84
2022/03/28 01:05:58;;;;;;;8.23;6.00;;;9.60;55.80;9.70;97243.00;;;;4951585;28;20204;-84
2022/03/28 01:08:26;;;;;;;7.53;6.00;;;9.60;55.80;9.70;97238.00;;;;4960128;28;20193;-83
2022/03/28 01:10:57;;;;;;;7.90;5.70;;;9.50;55.70;9.60;97244.00;;;;4950122;29;20226;-83
2022/03/28 01:13:25;;;;;;;8.40;5.57;;;9.50;55.70;9.60;97252.00;;;;4954890;28;20314;-84
2022/03/28 01:15:54;;;;;;;8.17;6.00;;;9.50;55.60;9.60;97244.00;;;;4959378;29;20231;-84
2022/03/28 01:18:20;;;;;;;9.03;5.90;;;9.50;55.60;9.50;97235.00;;;;4958005;29;20325;-84
2022/03/28 01:20:47;;;;;;;7.40;5.83;;;9.40;55.50;9.50;97230.00;;;;4959921;28;20207;-84
2022/03/28 01:23:15;;;;;;;8.60;5.70;;;9.40;55.50;9.50;97236.00;;;;4959090;28;20310;-84
2022/03/28 01:25:51;;;;;;;7.33;5.67;;;9.40;55.50;9.40;97228.00;;;;4959197;29;20661;-83
2022/03/28 01:28:19;;;;;;;7.03;5.90;;;9.30;55.70;9.40;97234.00;;;;4960162;29;20219;-85
2022/03/28 01:30:46;;;;;;;7.97;6.23;;;9.30;55.70;9.40;97227.00;;;;4964663;29;20200;-85
2022/03/28 01:33:13;;;;;;;9.50;5.70;;;9.20;55.70;9.30;97223.00;;;;4968470;28;20220;-83
2022/03/28 01:35:43;;;;;;;7.80;5.97;;;9.20;55.80;9.30;97227.00;;;;4963894;29;20741;-84
2022/03/28 01:38:12;;;;;;;8.27;6.23;;;9.20;55.90;9.20;97220.00;;;;4956788;28;20242;-84
2022/03/28 01:40:43;;;;;;;8.07;5.50;;;9.20;56.00;9.20;97230.00;;;;4938832;28;20655;-84
2022/03/28 01:43:11;;;;;;;8.23;5.70;;;9.10;56.10;9.10;97228.00;;;;4939320;29;20584;-84
2022/03/28 01:45:38;;;;;;;7.90;5.70;;;9.00;56.00;9.10;97231.00;;;;4938096;29;20662;-84
2022/03/28 01:48:06;;;;;;;9.60;5.87;;;9.00;56.10;9.00;97230.00;;;;4945464;28;20685;-83
2022/03/28 01:50:42;;;;;;;7.67;5.70;;;9.00;56.10;9.00;97222.00;;;;4961320;29;20215;-83
2022/03/28 01:53:10;;;;;;;9.40;6.13;;;8.90;56.20;9.00;97221.00;;;;4966771;28;20719;-83
2022/03/28 01:55:38;;;;;;;8.07;5.33;;;8.90;56.20;8.90;97223.00;;;;4965320;29;20210;-84
2022/03/28 01:58:08;;;;;;;8.13;5.63;;;8.90;56.20;8.90;97210.00;;;;4965372;29;20204;-83
2022/03/28 02:00:35;;;;;;;7.20;5.20;;;8.80;56.40;8.90;97224.00;;;;4964784;29;20210;-84
2022/03/28 02:03:02;;;;;;;7.00;5.40;;;8.80;56.50;8.80;97213.00;;;;4965067;28;20232;-84
2022/03/28 02:05:30;;;;;;;7.03;5.20;;;8.80;56.50;8.80;97213.00;;;;5011375;28;20204;-83
2022/03/28 02:07:57;;;;;;;7.17;5.53;;;8.70;56.50;8.80;97209.00;;;;4994305;28;20295;-84
2022/03/28 02:10:24;;;;;;;6.43;4.90;;;8.70;56.50;8.80;97211.00;;;;4983795;28;20223;-83
2022/03/28 02:12:52;;;;;;;5.93;5.30;;;8.70;56.60;8.70;97209.00;;;;4962370;28;20311;-84
2022/03/28 02:15:22;;;;;;;8.20;5.17;;;8.70;56.70;8.70;97208.00;;;;4954670;29;20203;-84
2022/03/28 02:17:50;;;;;;;6.67;5.43;;;8.60;56.70;8.70;97202.00;;;;4953911;29;20619;-84
2022/03/28 02:20:18;;;;;;;7.33;5.73;;;8.60;56.70;8.70;97211.00;;;;4954189;29;20291;-83
2022/03/28 02:22:46;;;;;;;8.33;5.73;;;8.60;56.70;8.60;97204.00;;;;4953573;28;20258;-84
2022/03/28 02:25:15;;;;;;;6.37;5.20;;;8.50;56.70;8.60;97202.00;;;;4953712;29;20202;-84
2022/03/28 02:27:43;;;;;;;6.57;5.47;;;8.50;56.70;8.60;97204.00;;;;4954192;29;20208;-83
2022/03/28 02:30:14;;;;;;;7.80;5.50;;;8.50;57.10;8.50;97209.00;;;;4953746;28;20212;-84
2022/03/28 02:32:42;;;;;;;7.83;5.40;;;8.40;57.40;8.50;97199.00;;;;4954113;28;20273;-83
2022/03/28 02:35:11;;;;;;;8.03;5.47;;;8.40;57.50;8.40;97200.00;;;;4953425;29;20665;-84
2022/03/28 02:37:38;;;;;;;9.43;5.73;;;8.40;57.50;8.40;97198.00;;;;4954220;29;20232;-84
2022/03/28 02:40:08;;;;;;;8.03;5.47;;;8.40;57.50;8.40;97193.00;;;;4954745;29;20208;-84
2022/03/28 02:42:35;;;;;;;8.87;5.80;;;8.30;57.50;8.30;97193.00;;;;4995027;28;20221;-83
2022/03/28 02:45:03;;;;;;;7.67;5.80;;;8.30;57.40;8.30;97197.00;;;;4995382;28;20570;-84
2022/03/28 02:47:31;;;;;;;9.93;6.03;;;8.30;57.40;8.30;97197.00;;;;4957746;28;20271;-83
2022/03/28 02:49:59;;;;;;;6.73;5.60;;;8.30;57.50;8.30;97198.00;;;;4969162;28;20198;-85
2022/03/28 02:52:26;;;;;;;7.47;5.57;;;8.20;57.40;8.20;97193.00;;;;4975013;28;20250;-85
2022/03/28 02:54:54;;;;;;;9.93;5.87;;;8.20;57.40;8.20;97196.00;;;;4976693;28;20211;-84
2022/03/28 02:57:22;;;;;;;9.23;6.10;;;8.20;57.50;8.10;97202.00;;;;4962313;29;20665;-82
2022/03/28 02:59:49;;;;;;;9.10;5.77;;;8.20;57.60;8.10;97182.00;;;;4962772;29;20234;-83
2022/03/28 03:02:16;;;;;;;10.50;6.10;;;8.10;57.50;8.10;97185.00;;;;4961474;28;20228;-83
2022/03/28 03:04:43;;;;;;;6.37;5.00;;;8.00;57.50;8.10;97189.00;;;;4962027;29;20295;-83
2022/03/28 03:07:11;;;;;;;8.80;6.07;;;8.00;57.50;8.10;97190.00;;;;4962405;29;20206;-82
2022/03/28 03:09:38;;;;;;;7.10;5.00;;;8.00;57.60;8.00;97186.00;;;;4963164;29;20239;-85
2022/03/28 03:12:07;;;;;;;9.40;6.07;;;8.00;57.60;8.00;97189.00;;;;4964258;28;20247;-83
2022/03/28 03:14:34;;;;;;;6.63;5.40;;;7.90;57.50;7.90;97185.00;;;;4996699;28;20203;-82
2022/03/28 03:17:02;;;;;;;10.10;5.53;;;7.90;57.50;7.90;97183.00;;;;4962937;29;20220;-83
2022/03/28 03:19:29;;;;;;;5.80;4.87;;;7.90;57.60;7.90;97182.00;;;;4963395;28;20204;-83
2022/03/28 03:21:56;;;;;;;10.33;6.00;;;7.80;57.60;7.90;97185.00;;;;4963890;28;20230;-83
2022/03/28 03:24:24;;;;;;;6.20;5.50;;;7.80;57.70;7.80;97178.00;;;;4970641;29;20235;-83
2022/03/28 03:26:51;;;;;;;6.60;5.70;;;7.80;57.80;7.80;97181.00;;;;4967491;29;20294;-83
2022/03/28 03:29:19;;;;;;;6.70;5.00;;;7.80;57.90;7.80;97180.00;;;;4965817;29;20204;-83
2022/03/28 03:31:47;;;;;;;6.20;5.03;;;7.70;57.90;7.80;97174.00;;;;4965955;28;20234;-83
2022/03/28 03:34:14;;;;;;;6.27;4.93;;;7.70;58.00;7.80;97170.00;;;;4965705;29;20203;-84
2022/03/28 03:36:41;;;;;;;6.57;5.07;;;7.70;58.00;7.70;97170.00;;;;4968325;29;20610;-84
2022/03/28 03:39:08;;;;;;;7.20;5.10;;;7.70;58.00;7.70;97176.00;;;;4968709;29;20191;-83
2022/03/28 03:41:36;;;;;;;9.27;5.60;;;7.60;58.00;7.70;97173.00;;;;4967450;28;20228;-82
2022/03/28 03:44:04;;;;;;;7.23;5.17;;;7.70;58.20;7.70;97176.00;;;;4967011;28;20290;-84
2022/03/28 03:46:31;;;;;;;9.73;5.63;;;7.60;58.20;7.70;97174.00;;;;4967154;29;20200;-84
2022/03/28 03:48:58;;;;;;;7.30;5.80;;;7.60;58.20;7.60;97173.00;;;;4964708;29;20204;-84
2022/03/28 03:51:25;;;;;;;7.83;5.70;;;7.60;58.30;7.60;97170.00;;;;4965506;28;20210;-84
2022/03/28 03:53:52;;;;;;;8.77;5.80;;;7.50;58.30;7.60;97176.00;;;;4964498;29;20203;-85
2022/03/28 03:56:19;;;;;;;8.77;5.67;;;7.50;58.40;7.60;97169.00;;;;4965576;29;20227;-83
2022/03/28 03:58:47;;;;;;;6.80;5.27;;;7.50;58.50;7.60;97171.00;;;;4964700;29;20203;-82
2022/03/28 04:01:14;;;;;;;8.43;5.90;;;7.50;58.60;7.60;97179.00;;;;4967214;28;20204;-82
2022/03/28 04:03:41;;;;;;;7.33;5.57;;;7.50;58.50;7.60;97176.00;;;;4971798;28;20212;-83
2022/03/28 04:06:10;;;;;;;8.17;5.43;;;7.40;58.50;7.50;97169.00;;;;4964216;29;20291;-82
2022/03/28 04:08:38;;;;;;;7.03;5.53;;;7.50;58.60;7.50;97175.00;;;;4962662;29;20299;-83
2022/03/28 04:11:06;;;;;;;8.50;5.80;;;7.40;58.60;7.50;97183.00;;;;4963126;29;20204;-83
2022/03/28 04:13:33;;;;;;;7.47;5.47;;;7.40;58.50;7.50;97176.00;;;;4962696;28;20311;-84
2022/03/28 04:16:02;;;;;;;7.77;5.43;;;7.40;58.50;7.50;97174.00;;;;4963142;29;20210;-84
2022/03/28 04:18:29;;;;;;;7.07;5.83;;;7.40;58.60;7.50;97169.00;;;;4989866;28;20224;-82
2022/03/28 04:20:56;;;;;;;6.90;5.63;;;7.40;58.50;7.50;97174.00;;;;5018777;28;20231;-84
2022/03/28 04:23:27;;;;;;;8.03;5.77;;;7.40;58.50;7.40;97174.00;;;;4975314;28;20302;-83
2022/03/28 04:25:54;;;;;;;7.73;5.67;;;7.40;58.50;7.40;97173.00;;;;4980302;28;20197;-83
2022/03/28 04:28:21;;;;;;;7.87;5.03;;;7.30;58.50;7.40;97168.00;;;;4960739;28;20574;-82
2022/03/28 04:30:50;;;;;;;8.87;5.77;;;7.30;58.60;7.40;97169.00;;;;5003522;28;20739;-84
2022/03/28 04:33:19;;;;;;;8.40;6.13;;;7.30;58.50;7.40;97159.00;;;;4977956;28;20230;-84
2022/03/28 04:35:46;;;;;;;6.57;5.47;;;7.30;58.60;7.30;97159.00;;;;4959159;28;20203;-83
2022/03/28 04:38:13;;;;;;;8.23;5.43;;;7.30;58.60;7.30;97157.00;;;;4993244;28;20224;-84
2022/03/28 04:40:41;;;;;;;8.30;6.10;;;7.30;58.70;7.30;97158.00;;;;4967093;28;20207;-84
2022/03/28 04:43:08;;;;;;;6.93;5.53;;;7.30;58.80;7.30;97156.00;;;;4956828;28;20238;-83
2022/03/28 04:45:36;;;;;;;9.17;5.67;;;7.20;58.70;7.30;97160.00;;;;4957861;28;20662;-83
2022/03/28 04:48:03;;;;;;;9.27;5.87;;;7.20;58.60;7.30;97170.00;;;;4967105;28;20211;-84
2022/03/28 04:50:32;;;;;;;8.83;6.03;;;7.20;58.60;7.30;97156.00;;;;4998528;28;20208;-84
2022/03/28 04:52:59;;;;;;;9.67;6.07;;;7.10;58.70;7.30;97158.00;;;;4955608;28;20230;-84
2022/03/28 04:55:27;;;;;;;7.97;5.53;;;7.20;58.80;7.30;97162.00;;;;4954718;28;20265;-84
2022/03/28 04:57:54;;;;;;;7.70;5.90;;;7.20;58.80;7.30;97165.00;;;;4954811;29;20234;-84
2022/03/28 05:00:21;;;;;;;8.10;6.07;;;7.20;58.70;7.20;97168.00;;;;4955473;28;20430;-84
2022/03/28 05:02:48;;;;;;;8.43;6.37;;;7.20;58.80;7.20;97160.00;;;;4954831;28;20232;-84
2022/03/28 05:05:15;;;;;;;7.63;5.60;;;7.20;58.90;7.20;97160.00;;;;4954552;28;20210;-84
2022/03/28 05:07:44;;;;;;;9.27;5.97;;;7.10;58.90;7.20;97161.00;;;;4954454;28;20200;-84
2022/03/28 05:10:11;;;;;;;7.80;5.77;;;7.10;59.50;7.20;97161.00;;;;4957984;29;20666;-84
2022/03/28 05:12:38;;;;;;;8.27;5.60;;;7.10;58.90;7.20;97166.00;;;;4960598;28;20296;-84
2022/03/28 05:15:06;;;;;;;9.53;5.70;;;7.10;58.90;7.20;97160.00;;;;4961047;29;20196;-80
2022/03/28 05:17:34;;;;;;;9.17;6.67;;;7.10;58.90;7.20;97155.00;;;;4963406;29;20345;-82
2022/03/28 05:20:01;;;;;;;13.07;6.43;;;7.10;59.00;7.20;97160.00;;;;4972503;28;20205;-80
2022/03/28 05:22:28;;;;;;;10.83;6.57;;;7.10;59.00;7.30;97164.00;;;;5033099;28;20303;-80
2022/03/28 05:24:57;;;;;;;10.83;7.07;;;7.10;59.10;7.30;97159.00;;;;4997319;28;20208;-80
2022/03/28 05:27:24;;;;;;;8.47;6.70;;;7.10;59.20;7.30;97159.00;;;;4958568;29;20677;-80
2022/03/28 05:29:52;;;;;;;11.97;6.90;;;7.10;59.10;7.30;97156.00;;;;4992799;28;20650;-80
2022/03/28 05:32:19;;;;;;;10.40;7.30;;;7.10;59.20;7.40;97148.00;;;;4971593;28;20243;-79
2022/03/28 05:34:46;;;;;;;9.50;7.17;;;7.10;59.40;7.40;97152.00;;;;4961142;29;20197;-80
2022/03/28 05:37:16;;;;;;;9.13;6.70;;;7.20;59.40;7.40;97156.00;;;;4958166;28;20224;-79
2022/03/28 05:39:46;;;;;;;10.83;6.97;;;7.20;59.50;7.50;97162.00;;;;4956219;28;20211;-80
2022/03/28 05:42:16;;;;;;;11.10;7.27;;;7.20;59.60;7.50;97161.00;;;;4959423;28;20228;-80
2022/03/28 05:44:45;;;;;;;9.60;7.00;;;7.20;59.60;7.60;97161.00;;;;4958521;29;20185;-84
2022/03/28 05:47:12;;;;;;;9.43;6.93;;;7.30;59.60;7.60;97160.00;;;;4964538;28;20205;-81
2022/03/28 05:49:40;;;;;;;9.83;7.20;;;7.30;59.60;7.60;97167.00;;;;4969725;28;20212;-81
2022/03/28 05:52:08;;;;;;;10.37;7.33;;;7.40;59.70;7.70;97156.00;;;;4966527;28;20217;-80
2022/03/28 05:54:36;;;;;;;8.97;7.30;;;7.40;59.80;7.70;97154.00;;;;4961627;29;20280;-83
2022/03/28 05:57:05;;;;;;;10.67;7.33;;;7.40;59.80;7.80;97151.00;;;;4959753;28;20231;-80
2022/03/28 05:59:33;;;;;;;11.87;7.27;;;7.50;59.90;7.80;97158.00;;;;4959973;28;20204;-80
2022/03/28 06:02:01;;;;;;;10.17;7.30;;;7.50;59.80;7.90;97162.00;;;;4960177;28;20315;-81
2022/03/28 06:04:28;;;;;;;11.00;7.63;;;7.60;59.70;7.90;97172.00;;;;4969181;28;20204;-80
2022/03/28 06:06:55;;;;;;;12.03;7.07;;;7.60;59.80;8.00;97164.00;;;;4977061;28;20203;-80
2022/03/28 06:09:22;;;;;;;10.00;7.27;;;7.70;59.70;8.00;97165.00;;;;4957961;28;20668;-79
2022/03/28 06:11:49;;;;;;;12.90;7.33;;;7.70;59.70;8.10;97159.00;;;;4956317;28;20227;-80
2022/03/28 06:14:16;;;;;;;12.10;8.13;;;7.70;59.50;8.10;97167.00;;;;4957920;28;20267;-79
2022/03/28 06:16:45;;;;;;;14.67;8.90;;;7.80;59.60;8.20;97172.00;;;;4958509;28;20210;-82
2022/03/28 06:19:12;;;;;;;13.30;8.70;;;7.90;59.50;8.20;97169.00;;;;4983408;23;20318;-83
2022/03/28 06:21:39;;;;;;;14.07;8.47;;;7.90;59.50;8.30;97171.00;;;;4973811;28;20660;-81
2022/03/28 06:24:07;;;;;;;11.80;8.50;;;8.00;59.50;8.40;97164.00;;;;4972436;28;20200;-82
2022/03/28 06:26:35;;;;;;;11.87;7.97;;;8.00;59.30;8.40;97168.00;;;;4972455;28;20249;-83
2022/03/28 06:29:02;;;;;;;10.33;7.80;;;8.10;59.20;8.50;97172.00;;;;4958825;28;20232;-86
2022/03/28 06:31:29;;;;;;;13.07;8.57;;;8.20;59.30;8.50;97163.00;;;;4956048;29;20207;-85
2022/03/28 06:34:02;;;;;;;10.77;7.97;;;8.20;59.00;8.60;97173.00;;;;4953002;28;20196;-85
2022/03/28 06:36:30;;;;;;;12.60;8.47;;;8.30;59.10;8.60;97167.00;;;;4952882;28;20275;-84
2022/03/28 06:38:57;;;;;;;11.43;7.63;;;8.40;59.10;8.70;97169.00;;;;4952731;29;20289;-85
2022/03/28 06:41:24;;;;;;;10.37;7.20;;;8.40;59.20;8.80;97170.00;;;;4952857;29;20211;-85
2022/03/28 06:43:51;;;;;;;10.33;7.90;;;8.50;59.10;8.90;97164.00;;;;4952940;29;20211;-85
2022/03/28 06:46:20;;;;;;;11.07;8.10;;;8.60;59.10;9.00;97167.00;;;;4952616;29;20197;-85
2022/03/28 06:48:48;;;;;;;12.90;8.00;;;8.70;59.20;9.10;97161.00;;;;4967240;28;20254;-85
2022/03/28 06:51:17;;;;;;;13.73;8.23;;;8.80;59.20;9.20;97160.00;;;;4969013;28;20203;-83
2022/03/28 06:53:48;;;;;;;9.40;7.47;;;8.80;59.10;9.30;97168.00;;;;4971848;28;20301;-83
2022/03/28 06:56:15;;;;;;;12.23;7.63;;;9.00;59.10;9.40;97162.00;;;;4971674;28;20207;-85
2022/03/28 06:58:42;;;;;;;11.83;8.27;;;9.00;58.80;9.50;97161.00;;;;4961781;28;20236;-84
2022/03/28 07:01:10;;;;;;;11.83;8.13;;;9.20;58.90;9.60;97169.00;;;;4958070;29;20211;-86
2022/03/28 07:03:38;;;;;;;10.17;7.77;;;9.30;58.80;9.70;97173.00;;;;4963288;29;20204;-85
2022/03/28 07:06:07;;;;;;;12.40;7.97;;;9.40;58.90;9.80;97175.00;;;;4957408;28;20204;-83
2022/03/28 07:08:36;;;;;;;8.97;6.90;;;9.50;58.90;9.90;97169.00;;;;4971704;28;20239;-83
2022/03/28 07:11:04;;;;;;;10.87;7.73;;;9.60;58.90;10.00;97173.00;;;;4956518;29;20673;-83
2022/03/28 07:13:31;;;;;;;12.63;7.70;;;9.70;58.50;10.20;97174.00;;;;4954777;29;20654;-83
2022/03/28 07:15:59;;;;;;;12.60;7.97;;;9.80;58.50;10.30;97174.00;;;;4955539;29;20748;-89
2022/03/28 07:18:26;;;;;;;14.33;8.20;;;9.90;58.70;10.40;97177.00;;;;4959975;28;20315;-83
2022/03/28 07:20:53;;;;;;;10.53;7.67;;;10.00;58.60;10.50;97170.00;;;;4954658;28;20222;-83
2022/03/28 07:23:22;;;;;;;10.93;7.27;;;10.10;59.10;10.60;97176.00;;;;4953258;28;20669;-84
2022/03/28 07:25:51;;;;;;;9.80;7.50;;;10.30;58.60;10.80;97164.00;;;;4967304;28;20284;-83
2022/03/28 07:28:18;;;;;;;11.10;8.10;;;10.40;58.50;10.90;97167.00;;;;4962257;28;20591;-85
2022/03/28 07:30:46;;;;;;;7.90;7.07;;;10.50;58.80;11.00;97168.00;;;;4955738;29;20246;-85
2022/03/28 07:33:13;;;;;;;11.27;8.13;;;10.70;58.30;11.20;97172.00;;;;4954331;28;20204;-85
2022/03/28 07:35:41;;;;;;;10.33;7.97;;;10.80;58.30;11.40;97167.00;;;;4955720;29;20736;-84
2022/03/28 07:38:10;;;;;;;10.47;8.00;;;10.90;58.30;11.60;97171.00;;;;4955205;29;20224;-84
2022/03/28 07:40:40;;;;;;;10.23;7.43;;;11.10;58.20;11.80;97160.00;;;;4934716;29;20224;-84
2022/03/28 07:43:09;;;;;;;9.97;7.20;;;11.30;58.30;12.10;97162.00;;;;4944405;28;20291;-84
2022/03/28 07:45:37;;;;;;;11.87;8.03;;;11.50;58.30;12.40;97164.00;;;;4952203;28;20227;-83
2022/03/28 07:48:06;;;;;;;10.33;8.20;;;11.70;58.20;12.70;97162.00;;;;4959411;28;20231;-84
2022/03/28 07:50:34;;;;;;;12.10;7.80;;;11.90;58.00;12.90;97166.00;;;;4958595;28;20619;-84
2022/03/28 07:53:01;;;;;;;9.17;7.00;;;12.20;58.00;13.20;97168.00;;;;4973883;28;20234;-84
2022/03/28 07:55:28;;;;;;;9.90;8.13;;;12.40;57.90;13.40;97165.00;;;;4973000;28;20212;-84
2022/03/28 07:57:55;;;;;;;8.43;7.13;;;12.70;57.70;13.70;97163.00;;;;4968361;28;20323;-84
2022/03/28 08:00:24;;;;;;;10.17;7.67;;;12.90;57.50;14.00;97165.00;;;;4952247;28;20192;-84
2022/03/28 08:02:51;;;;;;;9.13;7.20;;;13.20;57.30;14.30;97159.00;;;;4956235;28;20205;-84
2022/03/28 08:05:18;;;;;;;10.40;7.47;;;13.40;57.10;14.50;97160.00;;;;4955525;28;20200;-83
2022/03/28 08:07:45;;;;;;;11.80;7.93;;;13.70;56.60;14.80;97171.00;;;;4955404;28;20720;-83
2022/03/28 08:10:13;;;;;;;9.50;7.13;;;13.90;56.20;15.10;97163.00;;;;4955391;28;20205;-81
2022/03/28 08:12:42;;;;;;;10.53;7.63;;;14.20;56.00;15.40;97165.00;;;;4955341;29;20204;-81
2022/03/28 08:15:10;;;;;;;12.03;8.40;;;14.50;55.90;15.60;97159.00;;;;4955309;29;20209;-81
2022/03/28 08:17:41;;;;;;;10.67;7.17;;;14.70;55.60;15.90;97166.00;;;;4955660;29;20236;-81
2022/03/28 08:20:12;;;;;;;9.70;7.43;;;15.00;55.90;16.20;97168.00;;;;4956286;28;20291;-81
2022/03/28 08:22:40;;;;;;;10.13;8.20;;;15.20;55.10;16.50;97158.00;;;;4959250;28;20668;-81
2022/03/28 08:25:08;;;;;;;9.60;7.50;;;15.50;54.90;16.80;97160.00;;;;4967812;28;20215;-81
2022/03/28 08:27:37;;;;;;;9.20;7.33;;;15.70;54.70;17.10;97165.00;;;;4975255;28;20219;-81
2022/03/28 08:30:05;;;;;;;9.30;7.03;;;16.00;54.60;17.40;97158.00;;;;4957448;28;20223;-81
2022/03/28 08:32:33;;;;;;;9.87;7.17;;;16.30;54.30;17.70;97162.00;;;;4956331;28;20200;-81
2022/03/28 08:35:02;;;;;;;12.23;8.57;;;16.50;53.80;18.10;97167.00;;;;4956135;28;20611;-81
2022/03/28 08:37:29;;;;;;;11.03;8.20;;;16.80;53.60;18.50;97161.00;;;;4955910;28;20243;-81
2022/03/28 08:39:56;;;;;;;8.80;7.37;;;17.10;53.10;18.90;97171.00;;;;4955843;29;20591;-81
2022/03/28 08:42:24;;;;;;;10.53;7.50;;;17.40;53.00;19.30;97169.00;;;;4955850;29;20201;-81
2022/03/28 08:44:53;;;;;;;9.17;7.20;;;17.60;52.60;19.60;97173.00;;;;4955514;29;20206;-81
2022/03/28 08:47:24;;;;;;;10.40;7.20;;;18.00;52.10;20.00;97176.00;;;;4957762;28;20204;-81
2022/03/28 08:49:53;;;;;;;10.70;7.50;;;18.30;51.90;20.30;97172.00;;;;4975997;28;20312;-81
2022/03/28 08:52:23;;;;;;;9.13;7.50;;;18.70;51.50;20.50;97174.00;;;;4975945;28;20200;-81
2022/03/28 08:54:51;;;;;;;7.67;6.70;;;19.10;51.00;20.80;97176.00;;;;4976562;28;20277;-81
2022/03/28 08:57:18;;;;;;;10.00;6.63;;;19.50;50.70;21.00;97179.00;;;;4975213;28;20205;-81
2022/03/28 08:59:45;;;;;;;10.47;6.90;;;20.00;50.30;21.40;97179.00;;;;4955664;29;20272;-81
2022/03/28 09:02:41;;;;;;;9.03;6.63;;;20.40;50.00;21.80;97182.00;;;;4956056;29;20203;-81
2022/03/28 09:05:09;;;;;;;8.10;6.47;;;21.00;48.60;22.20;97182.00;;;;4956087;29;20734;-81
2022/03/28 09:07:38;;;;;;;7.10;6.07;;;21.50;48.50;22.60;97180.00;;;;4955656;29;20220;-81
2022/03/28 09:10:12;;;;;;;10.00;6.90;;;22.10;47.90;23.00;97177.00;;;;4955730;29;20205;-81
2022/03/28 09:12:58;;;;;;;7.67;6.37;;;22.70;47.20;23.40;97183.00;;;;4955804;29;20210;-81
2022/03/28 09:15:26;;;;;;;9.33;7.37;;;23.30;45.30;23.80;97177.00;;;;4956263;29;20207;-81
2022/03/28 09:17:57;;;;;;;8.57;7.27;;;23.90;45.40;24.20;97179.00;;;;4962148;28;20230;-81
2022/03/28 09:20:25;;;;;;;9.90;6.90;;;24.40;43.30;24.60;97183.00;;;;4975225;28;20200;-81
2022/03/28 09:22:53;;;;;;;8.13;6.50;;;24.90;43.30;24.90;97174.00;;;;4976178;28;20214;-81
2022/03/28 09:25:20;;;;;;;9.13;6.70;;;25.40;42.70;25.20;97172.00;;;;4976037;28;20207;-81
2022/03/28 09:27:49;;;;;;;9.37;6.90;;;25.80;41.70;25.40;97170.00;;;;4969772;28;20230;-80
2022/03/28 09:30:18;;;;;;;8.33;6.17;;;26.20;40.90;25.60;97168.00;;;;4955437;29;20694;-81
2022/03/28 09:32:48;;;;;;;8.93;6.37;;;26.50;40.50;25.80;97164.00;;;;4955011;28;20216;-81
2022/03/28 09:35:20;;;;;;;7.93;6.37;;;26.80;39.70;26.10;97171.00;;;;4956826;29;20232;-80
2022/03/28 09:37:57;;;;;;;7.73;6.03;;;27.20;39.00;26.20;97160.00;;;;4954374;28;20251;-80
2022/03/28 09:40:29;;;;;;;7.90;6.23;;;27.40;39.00;26.50;97162.00;;;;4953930;28;20665;-81
2022/03/28 09:42:57;;;;;;;7.00;5.90;;;27.70;38.30;26.70;97158.00;;;;4957072;28;20649;-81
2022/03/28 09:45:28;;;;;;;8.95;6.78;;;27.90;38.30;26.90;97158.00;;;;4960512;29;20196;-81
2022/03/28 09:47:59;;;;;;;11.00;7.50;;;28.10;37.30;27.00;97147.00;;;;4959598;29;20597;-81
2022/03/28 09:50:38;;;;;;;9.93;6.70;;;28.20;36.40;27.10;97144.00;;;;4959146;29;20413;-82
2022/03/28 09:53:21;;;;;;;11.48;7.43;;;28.30;34.90;27.20;97146.00;;;;4959246;29;20199;-82
2022/03/28 09:55:52;;;;;;;6.83;6.13;;;28.20;34.40;27.20;97144.00;;;;4973180;28;20599;-82
2022/03/28 09:58:46;;;;;;;9.97;6.90;;;28.10;35.10;27.20;97146.00;;;;4968975;28;20263;-82
2022/03/28 10:01:17;;;;;;;9.33;6.20;;;28.00;33.70;27.10;97127.00;;;;4958194;29;20208;-82
2022/03/28 10:03:47;;;;;;;8.77;6.43;;;27.90;35.00;27.10;97130.00;;;;4958257;28;20212;-82
2022/03/28 10:06:15;;;;;;;7.87;6.00;;;27.90;34.70;27.20;97125.00;;;;4957557;28;20669;-83
2022/03/28 10:08:45;;;;;;;9.30;6.37;;;27.90;34.80;27.20;97126.00;;;;4952173;28;20310;-85
2022/03/28 10:11:13;;;;;;;10.90;6.67;;;27.90;34.80;27.20;97125.00;;;;4956501;29;20204;-82
2022/03/28 10:13:41;;;;;;;7.85;5.85;;;27.90;34.00;27.30;97125.00;;;;4957165;29;20204;-82
2022/03/28 10:16:09;;;;;;;8.00;6.03;;;28.00;33.70;27.30;97114.00;;;;4956772;29;20286;-82
2022/03/28 10:18:38;;;;;;;8.90;6.03;;;28.00;33.40;27.20;97109.00;;;;4968550;28;20597;-82
2022/03/28 10:21:15;;;;;;;7.82;5.82;;;28.20;33.70;27.20;97108.00;;;;4975284;28;20211;-82
2022/03/28 10:23:50;;;;;;;8.60;6.35;;;28.20;32.80;27.20;97101.00;;;;4975395;28;20297;-82
2022/03/28 10:26:21;;;;;;;7.50;5.77;;;28.30;32.00;27.10;97103.00;;;;4974015;28;20215;-82
2022/03/28 10:29:05;;;;;;;9.50;6.37;;;28.30;32.60;27.10;97096.00;;;;4963957;28;20228;-82
2022/03/28 10:31:34;;;;;;;7.80;6.50;;;28.40;31.40;27.00;97094.00;;;;4957347;29;20204;-82
2022/03/28 10:34:03;;;;;;;6.37;5.53;;;28.40;31.90;27.00;97091.00;;;;4956622;28;20731;-82
2022/03/28 10:36:34;;;;;;;8.70;6.20;;;28.40;31.90;26.90;97084.00;;;;4957108;29;20565;-82
2022/03/28 10:39:36;;;;;;;6.60;5.47;;;28.40;31.20;26.80;97086.00;;;;4956471;28;20246;-83
2022/03/28 10:42:14;;;;;;;6.17;5.40;;;28.40;30.40;26.80;97080.00;;;;4956149;29;20235;-83
2022/03/28 10:45:00;;;;;;;8.20;5.63;;;28.40;30.30;26.70;97070.00;;;;4955911;28;20222;-82
2022/03/28 10:47:44;;;;;;;8.67;5.77;;;28.40;30.00;26.70;97060.00;;;;4957555;28;20223;-83
2022/03/28 10:50:13;;;;;;;7.83;6.20;;;28.30;30.00;26.70;97054.00;;;;4974414;28;20226;-83
2022/03/28 10:53:08;;;;;;;8.73;6.17;;;28.20;30.20;26.60;97057.00;;;;4975433;28;20199;-82
2022/03/28 10:55:42;;;;;;;7.93;6.23;;;28.00;29.90;26.60;97055.00;;;;4975498;28;20575;-83
2022/03/28 10:58:17;;;;;;;9.30;6.50;;;27.80;30.00;26.60;97046.00;;;;4976390;28;20223;-82
2022/03/28 11:01:27;;;;;;;7.47;5.73;;;27.60;29.60;26.50;97041.00;;;;4974676;28;20202;-83
2022/03/28 11:04:01;;;;;;;10.53;6.20;;;27.30;29.70;26.40;97042.00;;;;4977668;28;20291;-83
2022/03/28 11:06:59;;;;;;;10.13;7.17;;;27.00;29.80;26.20;97031.00;;;;4978047;28;20209;-82
2022/03/28 11:10:02;;;;;;;8.37;6.80;;;26.70;29.20;26.00;97030.00;;;;4981834;28;20235;-82
2022/03/28 11:12:34;;;;;;;8.13;6.10;;;26.40;29.40;25.90;97019.00;;;;4976649;28;20295;-82